sensor_id;sensor_type;location;lat;lon;timestamp;P1;durP1;ratioP1;P2;durP2;ratioP2
13564;SDS011;6854;48.096;11.278;2023-04-21T03:44:23;40.93;;;23.47;;
13564;SDS011;6854;48.096;11.278;2023-04-21T03:56:18;33.77;;;19.57;;
13564;SDS011;6854;48.096;11.278;2023-04-21T03:59:31;36.47;;;18.30;;
13564;SDS011;6854;48.096;11.278;2023-04-21T04:50:29;64.10;;;28.50;;
13564;SDS011;6854;48.096;11.278;2023-04-21T04:52:55;85.10;;;31.60;;
13564;SDS011;6854;48.096;11.278;2023-04-21T04:55:21;74.87;;;30.97;;
13564;SDS011;6854;48.096;11.278;2023-04-21T04:57:47;78.93;;;32.00;;
13564;SDS011;6854;48.096;11.278;2023-04-21T05:00:13;84.40;;;33.27;;
13564;SDS011;6854;48.096;11.278;2023-04-21T05:02:40;96.80;;;36.30;;
13564;SDS011;6854;48.096;11.278;2023-04-21T05:05:06;89.47;;;32.40;;
13564;SDS011;6854;48.096;11.278;2023-04-21T05:07:35;81.30;;;31.70;;
13564;SDS011;6854;48.096;11.278;2023-04-21T05:10:01;70.30;;;29.80;;
13564;SDS011;6854;48.096;11.278;2023-04-21T05:12:28;72.17;;;31.00;;
13564;SDS011;6854;48.096;11.278;2023-04-21T05:14:56;74.57;;;29.20;;
13564;SDS011;6854;48.096;11.278;2023-04-21T05:17:22;77.33;;;33.17;;
13564;SDS011;6854;48.096;11.278;2023-04-21T05:19:48;86.40;;;32.37;;
13564;SDS011;6854;48.096;11.278;2023-04-21T05:22:14;91.33;;;32.73;;
13564;SDS011;6854;48.096;11.278;2023-04-21T05:24:40;80.30;;;31.60;;
13564;SDS011;6854;48.096;11.278;2023-04-21T05:27:08;78.37;;;33.00;;
13564;SDS011;6854;48.096;11.278;2023-04-21T05:29:34;89.10;;;33.90;;
13564;SDS011;6854;48.096;11.278;2023-04-21T05:32:00;68.93;;;32.90;;
13564;SDS011;6854;48.096;11.278;2023-04-21T05:34:26;73.43;;;32.63;;
13564;SDS011;6854;48.096;11.278;2023-04-21T05:36:52;70.77;;;32.27;;
13564;SDS011;6854;48.096;11.278;2023-04-21T05:39:18;79.67;;;32.63;;
13564;SDS011;6854;48.096;11.278;2023-04-21T05:41:44;70.87;;;33.90;;
13564;SDS011;6854;48.096;11.278;2023-04-21T05:44:10;71.10;;;33.60;;
13564;SDS011;6854;48.096;11.278;2023-04-21T05:46:36;76.77;;;33.60;;
13564;SDS011;6854;48.096;11.278;2023-04-21T05:49:02;66.30;;;33.40;;
13564;SDS011;6854;48.096;11.278;2023-04-21T05:51:28;62.23;;;31.33;;
13564;SDS011;6854;48.096;11.278;2023-04-21T05:53:56;64.40;;;29.70;;
13564;SDS011;6854;48.096;11.278;2023-04-21T05:56:22;51.93;;;28.50;;
13564;SDS011;6854;48.096;11.278;2023-04-21T05:58:48;51.13;;;27.30;;
13564;SDS011;6854;48.096;11.278;2023-04-21T06:01:14;44.57;;;25.60;;
13564;SDS011;6854;48.096;11.278;2023-04-21T06:03:40;43.87;;;24.80;;
13564;SDS011;6854;48.096;11.278;2023-04-21T06:06:06;40.20;;;23.40;;
13564;SDS011;6854;48.096;11.278;2023-04-21T06:08:34;36.90;;;21.23;;
13564;SDS011;6854;48.096;11.278;2023-04-21T06:11:00;34.60;;;21.23;;
13564;SDS011;6854;48.096;11.278;2023-04-21T06:13:26;33.90;;;20.43;;
13564;SDS011;6854;48.096;11.278;2023-04-21T06:15:55;32.17;;;20.47;;
13564;SDS011;6854;48.096;11.278;2023-04-21T06:18:21;31.13;;;20.07;;
13564;SDS011;6854;48.096;11.278;2023-04-21T06:20:52;26.47;;;17.30;;
13564;SDS011;6854;48.096;11.278;2023-04-21T06:23:18;29.07;;;18.30;;
13564;SDS011;6854;48.096;11.278;2023-04-21T06:25:44;24.67;;;16.13;;
13564;SDS011;6854;48.096;11.278;2023-04-21T06:28:10;22.37;;;14.67;;
13564;SDS011;6854;48.096;11.278;2023-04-21T06:30:37;22.17;;;14.17;;
13564;SDS011;6854;48.096;11.278;2023-04-21T06:33:04;21.37;;;13.93;;
13564;SDS011;6854;48.096;11.278;2023-04-21T06:35:30;26.53;;;13.60;;
13564;SDS011;6854;48.096;11.278;2023-04-21T06:37:56;22.83;;;14.03;;
13564;SDS011;6854;48.096;11.278;2023-04-21T06:40:22;19.83;;;13.57;;
13564;SDS011;6854;48.096;11.278;2023-04-21T06:42:48;20.13;;;14.23;;
13564;SDS011;6854;48.096;11.278;2023-04-21T06:45:14;17.57;;;12.70;;
13564;SDS011;6854;48.096;11.278;2023-04-21T06:47:40;19.10;;;12.80;;
13564;SDS011;6854;48.096;11.278;2023-04-21T06:50:06;17.80;;;12.37;;
13564;SDS011;6854;48.096;11.278;2023-04-21T06:52:33;15.83;;;12.10;;
13564;SDS011;6854;48.096;11.278;2023-04-21T06:54:59;16.70;;;12.37;;
13564;SDS011;6854;48.096;11.278;2023-04-21T06:57:25;16.50;;;12.43;;
13564;SDS011;6854;48.096;11.278;2023-04-21T06:59:51;17.13;;;11.73;;
13564;SDS011;6854;48.096;11.278;2023-04-21T07:02:17;19.23;;;12.43;;
13564;SDS011;6854;48.096;11.278;2023-04-21T07:04:43;18.13;;;12.30;;
13564;SDS011;6854;48.096;11.278;2023-04-21T07:07:09;18.70;;;12.47;;
13564;SDS011;6854;48.096;11.278;2023-04-21T07:09:35;13.77;;;11.20;;
13564;SDS011;6854;48.096;11.278;2023-04-21T07:12:01;18.00;;;11.97;;
13564;SDS011;6854;48.096;11.278;2023-04-21T07:14:27;16.23;;;10.97;;
13564;SDS011;6854;48.096;11.278;2023-04-21T07:16:53;17.27;;;11.33;;
13564;SDS011;6854;48.096;11.278;2023-04-21T07:19:21;17.73;;;11.03;;
13564;SDS011;6854;48.096;11.278;2023-04-21T07:21:47;15.80;;;11.43;;
13564;SDS011;6854;48.096;11.278;2023-04-21T07:24:13;12.87;;;9.67;;
13564;SDS011;6854;48.096;11.278;2023-04-21T07:26:39;15.63;;;10.90;;
13564;SDS011;6854;48.096;11.278;2023-04-21T07:29:05;14.13;;;9.70;;
13564;SDS011;6854;48.096;11.278;2023-04-21T07:31:30;14.63;;;10.13;;
13564;SDS011;6854;48.096;11.278;2023-04-21T07:33:56;13.23;;;9.27;;
13564;SDS011;6854;48.096;11.278;2023-04-21T07:36:22;12.70;;;9.07;;
13564;SDS011;6854;48.096;11.278;2023-04-21T07:38:50;12.20;;;8.60;;
13564;SDS011;6854;48.096;11.278;2023-04-21T07:41:16;12.93;;;8.07;;
13564;SDS011;6854;48.096;11.278;2023-04-21T07:43:42;11.70;;;8.27;;
13564;SDS011;6854;48.096;11.278;2023-04-21T07:46:08;11.53;;;8.60;;
13564;SDS011;6854;48.096;11.278;2023-04-21T07:48:34;13.33;;;8.67;;
13564;SDS011;6854;48.096;11.278;2023-04-21T07:51:00;10.30;;;7.90;;
13564;SDS011;6854;48.096;11.278;2023-04-21T07:53:27;10.23;;;7.50;;
13564;SDS011;6854;48.096;11.278;2023-04-21T07:55:54;11.47;;;8.27;;
13564;SDS011;6854;48.096;11.278;2023-04-21T14:22:58;5.00;;;2.90;;
13564;SDS011;6854;48.096;11.278;2023-04-21T14:26:15;3.58;;;3.13;;
13564;SDS011;6854;48.096;11.278;2023-04-21T15:44:16;3.85;;;1.85;;
13564;SDS011;6854;48.096;11.278;2023-04-21T15:46:43;3.00;;;2.30;;
13564;SDS011;6854;48.096;11.278;2023-04-21T15:49:55;4.60;;;2.33;;
